Auburn, IN (46706)

12:14 PM EST die 16o January, anno 2017 (GMT -0500)
East Memorial Park | | Change Station
Active Advisory: Flood Warning

Elev 866 ft 41.36 °N, 85.06 °W | Updated 9 minutes ago

Aequaliter Nubila
Aequaliter Nubila
33.6 °F
Feels Like 34 °F
N
0.0
Ventus Variabilis Ventus from Eurus
Gusts 2.0 mph

Hodie
High -- | Low -- °F
--% Chance of Precip.
Yesterday
High -- | Low -- °F
Precip. -- in
Pressio 30.27 in
Visibilitas 1.2 milia passuum
Clouds Nubes Dispersae 300 ft
Aequaliter Nubila 1000 ft
Frigus Venti 34 °F
Frigus in quo Ros apparet 32 °F
Umor 92%
Rainfall 0.00 in
Snow Depth Not available.
8:03 AM 5:37 PM
Waning Gibbous, 80% visible
METAR KGWB 161655Z AUTO 09004KT 1 1/4SM BR SCT003 OVC010 01/00 A3027 RMK AO2
Pressio 30.27 in
Visibilitas 1.2 milia passuum
Clouds Nubes Dispersae 300 ft
Aequaliter Nubila 1000 ft
Frigus Venti 34 °F
Frigus in quo Ros apparet 32 °F
Umor 92%
Rainfall 0.00 in
Snow Depth Not available.
8:03 AM 5:37 PM
Waning Gibbous, 80% visible
METAR KGWB 161655Z AUTO 09004KT 1 1/4SM BR SCT003 OVC010 01/00 A3027 RMK AO2

Get Your Daily Forecast Email!

Thanks for signing up!

Be on the lookout for a verification email in your inbox.

You'll start receiving the daily forecast at 8 AM.

×

10-Day Weather Forecast

Almanac

Astronomy

Jan. 16, 2017 Rise Set
Actual Time
Civil Twilight
Nautical Twilight
Astronomical Twilight
Moon
Length Of Visible Light
Length of Day
Tomorrow will be .
, % of the Moon is Illuminated

Today's Extremes

State Highs State Lows

Community

WunderPhotos

Upload Photos

1,962,540 photos uploaded!

WunderBlog® & News

Nearby

Air Quality

  Air Quality AQ Index Pollutant
Not available.

Snow Depth

Station Depth Elevation

Earthquake Activity

City Distance Mag. Time & Date
Minimum magnitude displayed is 2.5.

Coastal Water Temperatures

Locus Calor

Stations

Nearby Weather Stations

Station Location Temp Frigus Venti Frigus in quo Ros apparet Umor Ventus Precip. Elev Renovata Type
                   

Watches & Warnings

Flood Warning
Issued: 8:51 PM EST Jan. 15, 2017 – National Weather Service

the Flood Warning has been extended for
the Saint Joseph River Ohio above Newville
* until late Monday night.
* At 8 PM Sunday the stage was 12.1 feet and steady.
* Minor flooding is occurring and minor flooding is forecast.
* Flood stage is 12.0 feet.
* Forecast... the river will fall below the 12.0 foot flood stage
around 1 am Monday January 16.
* At 12.0 feet... DeKalb County Road 42 about 3 miles northeast of
Newville floods. Agricultural and low lands flood along the St.
Joseph river to the Cedarville Reservoir.
* This crest compares to a previous crest of 12.0 feet which occurred
on Dec 30 2015.


Lat... Lon 4126 8498 4140 8481 4139 8478 4123 8493